sensor_id;sensor_type;location;lat;lon;timestamp;pressure;altitude;pressure_sealevel;temperature
14851;BMP180;7517;48.400;11.770;2022-08-01T00:00:04;96445.00;;;25.10
14851;BMP180;7517;48.400;11.770;2022-08-01T00:02:33;96445.00;;;25.20
14851;BMP180;7517;48.400;11.770;2022-08-01T00:05:00;96452.00;;;25.20
14851;BMP180;7517;48.400;11.770;2022-08-01T00:07:27;96445.00;;;25.20
14851;BMP180;7517;48.400;11.770;2022-08-01T00:09:55;96442.00;;;25.20
14851;BMP180;7517;48.400;11.770;2022-08-01T00:12:23;96441.00;;;25.30
14851;BMP180;7517;48.400;11.770;2022-08-01T00:14:50;96443.00;;;25.30
14851;BMP180;7517;48.400;11.770;2022-08-01T00:17:17;96440.00;;;25.30
14851;BMP180;7517;48.400;11.770;2022-08-01T00:19:45;96448.00;;;25.30
14851;BMP180;7517;48.400;11.770;2022-08-01T00:22:12;96447.00;;;25.30
14851;BMP180;7517;48.400;11.770;2022-08-01T00:24:39;96453.00;;;25.30
14851;BMP180;7517;48.400;11.770;2022-08-01T00:27:06;96447.00;;;25.30
14851;BMP180;7517;48.400;11.770;2022-08-01T00:29:35;96443.00;;;25.20
14851;BMP180;7517;48.400;11.770;2022-08-01T00:32:02;96442.00;;;25.20
14851;BMP180;7517;48.400;11.770;2022-08-01T00:34:30;96450.00;;;25.20
14851;BMP180;7517;48.400;11.770;2022-08-01T00:36:57;96443.00;;;25.20
14851;BMP180;7517;48.400;11.770;2022-08-01T00:39:24;96439.00;;;25.20
14851;BMP180;7517;48.400;11.770;2022-08-01T00:41:51;96439.00;;;25.20
14851;BMP180;7517;48.400;11.770;2022-08-01T00:44:18;96438.00;;;25.10
14851;BMP180;7517;48.400;11.770;2022-08-01T00:46:47;96447.00;;;25.10
14851;BMP180;7517;48.400;11.770;2022-08-01T00:49:14;96436.00;;;25.10
14851;BMP180;7517;48.400;11.770;2022-08-01T00:51:41;96438.00;;;25.10
14851;BMP180;7517;48.400;11.770;2022-08-01T00:54:10;96439.00;;;25.10
14851;BMP180;7517;48.400;11.770;2022-08-01T00:56:37;96442.00;;;25.10
14851;BMP180;7517;48.400;11.770;2022-08-01T00:59:04;96442.00;;;25.10
14851;BMP180;7517;48.400;11.770;2022-08-01T01:01:32;96446.00;;;25.10
14851;BMP180;7517;48.400;11.770;2022-08-01T01:04:02;96439.00;;;25.10
14851;BMP180;7517;48.400;11.770;2022-08-01T01:06:42;96441.00;;;25.10
14851;BMP180;7517;48.400;11.770;2022-08-01T01:09:29;96438.00;;;25.10
14851;BMP180;7517;48.400;11.770;2022-08-01T01:12:13;96443.00;;;25.00
14851;BMP180;7517;48.400;11.770;2022-08-01T01:14:53;96434.00;;;25.00
14851;BMP180;7517;48.400;11.770;2022-08-01T01:17:35;96442.00;;;25.00
14851;BMP180;7517;48.400;11.770;2022-08-01T01:20:08;96433.00;;;25.00
14851;BMP180;7517;48.400;11.770;2022-08-01T01:23:10;96440.00;;;25.00
14851;BMP180;7517;48.400;11.770;2022-08-01T01:26:13;96443.00;;;24.90
14851;BMP180;7517;48.400;11.770;2022-08-01T01:29:11;96445.00;;;24.90
14851;BMP180;7517;48.400;11.770;2022-08-01T01:31:46;96449.00;;;24.90
14851;BMP180;7517;48.400;11.770;2022-08-01T01:34:18;96444.00;;;24.80
14851;BMP180;7517;48.400;11.770;2022-08-01T01:36:49;96445.00;;;24.80
14851;BMP180;7517;48.400;11.770;2022-08-01T01:39:20;96439.00;;;24.80
14851;BMP180;7517;48.400;11.770;2022-08-01T01:41:49;96438.00;;;24.80
14851;BMP180;7517;48.400;11.770;2022-08-01T01:44:19;96440.00;;;24.70
14851;BMP180;7517;48.400;11.770;2022-08-01T01:46:48;96445.00;;;24.70
14851;BMP180;7517;48.400;11.770;2022-08-01T01:49:21;96435.00;;;24.70
14851;BMP180;7517;48.400;11.770;2022-08-01T01:51:51;96439.00;;;24.70
14851;BMP180;7517;48.400;11.770;2022-08-01T01:54:22;96438.00;;;24.60
14851;BMP180;7517;48.400;11.770;2022-08-01T01:56:50;96437.00;;;24.60
14851;BMP180;7517;48.400;11.770;2022-08-01T01:59:24;96443.00;;;24.60
14851;BMP180;7517;48.400;11.770;2022-08-01T02:01:55;96432.00;;;24.60
14851;BMP180;7517;48.400;11.770;2022-08-01T02:04:25;96443.00;;;24.60
14851;BMP180;7517;48.400;11.770;2022-08-01T02:06:54;96444.00;;;24.60
14851;BMP180;7517;48.400;11.770;2022-08-01T02:09:24;96445.00;;;24.50
14851;BMP180;7517;48.400;11.770;2022-08-01T02:11:54;96447.00;;;24.50
14851;BMP180;7517;48.400;11.770;2022-08-01T02:14:24;96458.00;;;24.50
14851;BMP180;7517;48.400;11.770;2022-08-01T02:16:57;96446.00;;;24.40
14851;BMP180;7517;48.400;11.770;2022-08-01T02:19:25;96460.00;;;24.40
14851;BMP180;7517;48.400;11.770;2022-08-01T02:21:57;96453.00;;;24.40
14851;BMP180;7517;48.400;11.770;2022-08-01T02:24:35;96452.00;;;24.40
14851;BMP180;7517;48.400;11.770;2022-08-01T02:27:09;96452.00;;;24.30
14851;BMP180;7517;48.400;11.770;2022-08-01T02:29:43;96458.00;;;24.30
14851;BMP180;7517;48.400;11.770;2022-08-01T02:32:17;96465.00;;;24.30
14851;BMP180;7517;48.400;11.770;2022-08-01T02:34:50;96459.00;;;24.30
14851;BMP180;7517;48.400;11.770;2022-08-01T02:37:20;96461.00;;;24.20
14851;BMP180;7517;48.400;11.770;2022-08-01T02:39:50;96468.00;;;24.20
14851;BMP180;7517;48.400;11.770;2022-08-01T02:42:22;96452.00;;;24.20
14851;BMP180;7517;48.400;11.770;2022-08-01T02:44:52;96459.00;;;24.20
14851;BMP180;7517;48.400;11.770;2022-08-01T02:47:22;96455.00;;;24.10
14851;BMP180;7517;48.400;11.770;2022-08-01T02:49:52;96459.00;;;24.10
14851;BMP180;7517;48.400;11.770;2022-08-01T02:52:21;96467.00;;;24.10
14851;BMP180;7517;48.400;11.770;2022-08-01T02:54:53;96459.00;;;24.10
14851;BMP180;7517;48.400;11.770;2022-08-01T02:57:23;96462.00;;;24.10
14851;BMP180;7517;48.400;11.770;2022-08-01T02:59:55;96464.00;;;24.10
14851;BMP180;7517;48.400;11.770;2022-08-01T03:02:26;96467.00;;;24.00
14851;BMP180;7517;48.400;11.770;2022-08-01T03:04:56;96468.00;;;24.10
14851;BMP180;7517;48.400;11.770;2022-08-01T03:07:25;96465.00;;;24.00
14851;BMP180;7517;48.400;11.770;2022-08-01T03:09:53;96461.00;;;24.00
14851;BMP180;7517;48.400;11.770;2022-08-01T03:12:27;96473.00;;;24.00
14851;BMP180;7517;48.400;11.770;2022-08-01T03:14:58;96473.00;;;24.00
14851;BMP180;7517;48.400;11.770;2022-08-01T03:17:28;96480.00;;;24.00
14851;BMP180;7517;48.400;11.770;2022-08-01T03:19:57;96480.00;;;24.00
14851;BMP180;7517;48.400;11.770;2022-08-01T03:22:27;96478.00;;;24.00
14851;BMP180;7517;48.400;11.770;2022-08-01T03:24:58;96471.00;;;24.00
14851;BMP180;7517;48.400;11.770;2022-08-01T03:27:26;96477.00;;;24.00
14851;BMP180;7517;48.400;11.770;2022-08-01T03:29:58;96480.00;;;24.00
14851;BMP180;7517;48.400;11.770;2022-08-01T03:32:28;96480.00;;;24.00
14851;BMP180;7517;48.400;11.770;2022-08-01T03:34:56;96487.00;;;24.00
14851;BMP180;7517;48.400;11.770;2022-08-01T03:37:28;96479.00;;;24.00
14851;BMP180;7517;48.400;11.770;2022-08-01T03:40:02;96494.00;;;23.90
14851;BMP180;7517;48.400;11.770;2022-08-01T03:42:35;96488.00;;;23.90
14851;BMP180;7517;48.400;11.770;2022-08-01T03:45:08;96484.00;;;23.90
14851;BMP180;7517;48.400;11.770;2022-08-01T03:47:43;96493.00;;;23.90
14851;BMP180;7517;48.400;11.770;2022-08-01T03:50:13;96501.00;;;23.80
14851;BMP180;7517;48.400;11.770;2022-08-01T03:52:44;96497.00;;;23.80
14851;BMP180;7517;48.400;11.770;2022-08-01T03:55:15;96493.00;;;23.80
14851;BMP180;7517;48.400;11.770;2022-08-01T03:57:44;96505.00;;;23.80
14851;BMP180;7517;48.400;11.770;2022-08-01T04:00:14;96501.00;;;23.80
14851;BMP180;7517;48.400;11.770;2022-08-01T04:02:46;96503.00;;;23.70
14851;BMP180;7517;48.400;11.770;2022-08-01T04:05:15;96504.00;;;23.70
14851;BMP180;7517;48.400;11.770;2022-08-01T04:07:46;96505.00;;;23.70
14851;BMP180;7517;48.400;11.770;2022-08-01T04:10:14;96503.00;;;23.70
14851;BMP180;7517;48.400;11.770;2022-08-01T04:12:41;96507.00;;;23.70
14851;BMP180;7517;48.400;11.770;2022-08-01T04:15:08;96510.00;;;23.70
14851;BMP180;7517;48.400;11.770;2022-08-01T04:17:37;96514.00;;;23.70
14851;BMP180;7517;48.400;11.770;2022-08-01T04:20:06;96513.00;;;23.70
14851;BMP180;7517;48.400;11.770;2022-08-01T04:22:33;96520.00;;;23.80
14851;BMP180;7517;48.400;11.770;2022-08-01T04:25:05;96530.00;;;23.80
14851;BMP180;7517;48.400;11.770;2022-08-01T04:27:39;96532.00;;;23.80
14851;BMP180;7517;48.400;11.770;2022-08-01T04:30:10;96533.00;;;23.80
14851;BMP180;7517;48.400;11.770;2022-08-01T04:32:41;96538.00;;;23.80
14851;BMP180;7517;48.400;11.770;2022-08-01T04:35:13;96537.00;;;23.90
14851;BMP180;7517;48.400;11.770;2022-08-01T04:37:45;96538.00;;;23.90
14851;BMP180;7517;48.400;11.770;2022-08-01T04:40:17;96539.00;;;24.00
14851;BMP180;7517;48.400;11.770;2022-08-01T04:42:48;96539.00;;;24.00
14851;BMP180;7517;48.400;11.770;2022-08-01T04:45:16;96540.00;;;24.00
14851;BMP180;7517;48.400;11.770;2022-08-01T04:47:46;96550.00;;;24.00
14851;BMP180;7517;48.400;11.770;2022-08-01T04:50:14;96543.00;;;24.10
14851;BMP180;7517;48.400;11.770;2022-08-01T04:52:41;96542.00;;;24.10
14851;BMP180;7517;48.400;11.770;2022-08-01T04:55:09;96545.00;;;24.10
14851;BMP180;7517;48.400;11.770;2022-08-01T04:57:39;96542.00;;;24.10
14851;BMP180;7517;48.400;11.770;2022-08-01T05:00:10;96551.00;;;24.20
14851;BMP180;7517;48.400;11.770;2022-08-01T05:02:37;96555.00;;;24.20
14851;BMP180;7517;48.400;11.770;2022-08-01T05:05:07;96549.00;;;24.20
14851;BMP180;7517;48.400;11.770;2022-08-01T05:07:36;96554.00;;;24.20
14851;BMP180;7517;48.400;11.770;2022-08-01T05:10:04;96558.00;;;24.20
14851;BMP180;7517;48.400;11.770;2022-08-01T05:12:32;96558.00;;;24.20
14851;BMP180;7517;48.400;11.770;2022-08-01T05:14:59;96558.00;;;24.20
14851;BMP180;7517;48.400;11.770;2022-08-01T05:17:27;96562.00;;;24.30
14851;BMP180;7517;48.400;11.770;2022-08-01T05:19:54;96561.00;;;24.30
14851;BMP180;7517;48.400;11.770;2022-08-01T05:22:23;96569.00;;;24.30
14851;BMP180;7517;48.400;11.770;2022-08-01T05:24:51;96568.00;;;24.30
14851;BMP180;7517;48.400;11.770;2022-08-01T05:27:19;96572.00;;;24.40
14851;BMP180;7517;48.400;11.770;2022-08-01T05:29:46;96570.00;;;24.40
14851;BMP180;7517;48.400;11.770;2022-08-01T05:32:13;96566.00;;;24.40
14851;BMP180;7517;48.400;11.770;2022-08-01T05:34:40;96574.00;;;24.50
14851;BMP180;7517;48.400;11.770;2022-08-01T05:37:08;96576.00;;;24.50
14851;BMP180;7517;48.400;11.770;2022-08-01T05:39:37;96582.00;;;24.50
14851;BMP180;7517;48.400;11.770;2022-08-01T05:42:04;96583.00;;;24.60
14851;BMP180;7517;48.400;11.770;2022-08-01T05:44:32;96589.00;;;24.60
14851;BMP180;7517;48.400;11.770;2022-08-01T05:46:59;96591.00;;;24.60
14851;BMP180;7517;48.400;11.770;2022-08-01T05:49:26;96597.00;;;24.70
14851;BMP180;7517;48.400;11.770;2022-08-01T05:51:53;96587.00;;;24.70
14851;BMP180;7517;48.400;11.770;2022-08-01T05:54:20;96596.00;;;24.70
14851;BMP180;7517;48.400;11.770;2022-08-01T05:56:49;96593.00;;;24.80
14851;BMP180;7517;48.400;11.770;2022-08-01T05:59:16;96596.00;;;24.80
14851;BMP180;7517;48.400;11.770;2022-08-01T06:01:43;96594.00;;;24.80
14851;BMP180;7517;48.400;11.770;2022-08-01T06:04:10;96600.00;;;24.80
14851;BMP180;7517;48.400;11.770;2022-08-01T06:06:37;96594.00;;;24.80
14851;BMP180;7517;48.400;11.770;2022-08-01T06:09:04;96599.00;;;24.80
14851;BMP180;7517;48.400;11.770;2022-08-01T06:11:32;96610.00;;;24.80
14851;BMP180;7517;48.400;11.770;2022-08-01T06:14:00;96614.00;;;24.80
14851;BMP180;7517;48.400;11.770;2022-08-01T06:16:27;96609.00;;;24.70
14851;BMP180;7517;48.400;11.770;2022-08-01T06:18:54;96621.00;;;24.70
14851;BMP180;7517;48.400;11.770;2022-08-01T06:21:22;96610.00;;;24.70
14851;BMP180;7517;48.400;11.770;2022-08-01T06:23:49;96611.00;;;24.70
14851;BMP180;7517;48.400;11.770;2022-08-01T06:26:18;96614.00;;;24.70
14851;BMP180;7517;48.400;11.770;2022-08-01T06:28:45;96612.00;;;24.70
14851;BMP180;7517;48.400;11.770;2022-08-01T06:31:14;96613.00;;;24.70
14851;BMP180;7517;48.400;11.770;2022-08-01T06:33:41;96618.00;;;24.70
14851;BMP180;7517;48.400;11.770;2022-08-01T06:36:08;96615.00;;;24.70
14851;BMP180;7517;48.400;11.770;2022-08-01T06:38:35;96618.00;;;24.80
14851;BMP180;7517;48.400;11.770;2022-08-01T06:41:04;96619.00;;;24.80
14851;BMP180;7517;48.400;11.770;2022-08-01T06:43:31;96622.00;;;24.80
14851;BMP180;7517;48.400;11.770;2022-08-01T06:45:58;96618.00;;;24.80
14851;BMP180;7517;48.400;11.770;2022-08-01T06:48:27;96621.00;;;24.80
14851;BMP180;7517;48.400;11.770;2022-08-01T06:50:54;96618.00;;;24.80
14851;BMP180;7517;48.400;11.770;2022-08-01T06:53:35;96625.00;;;24.80
14851;BMP180;7517;48.400;11.770;2022-08-01T06:56:03;96623.00;;;24.80
14851;BMP180;7517;48.400;11.770;2022-08-01T06:58:30;96619.00;;;24.90
14851;BMP180;7517;48.400;11.770;2022-08-01T07:00:58;96626.00;;;24.90
14851;BMP180;7517;48.400;11.770;2022-08-01T07:03:26;96623.00;;;24.90
14851;BMP180;7517;48.400;11.770;2022-08-01T07:05:54;96632.00;;;25.00
14851;BMP180;7517;48.400;11.770;2022-08-01T07:08:21;96621.00;;;25.10
14851;BMP180;7517;48.400;11.770;2022-08-01T07:10:48;96617.00;;;25.10
14851;BMP180;7517;48.400;11.770;2022-08-01T07:13:15;96622.00;;;25.20
14851;BMP180;7517;48.400;11.770;2022-08-01T07:15:46;96626.00;;;25.30
14851;BMP180;7517;48.400;11.770;2022-08-01T07:18:13;96627.00;;;25.40
14851;BMP180;7517;48.400;11.770;2022-08-01T07:20:42;96623.00;;;25.50
14851;BMP180;7517;48.400;11.770;2022-08-01T07:23:11;96623.00;;;25.70
14851;BMP180;7517;48.400;11.770;2022-08-01T07:25:39;96623.00;;;25.90
14851;BMP180;7517;48.400;11.770;2022-08-01T07:28:06;96623.00;;;26.10
14851;BMP180;7517;48.400;11.770;2022-08-01T07:30:34;96629.00;;;26.30
14851;BMP180;7517;48.400;11.770;2022-08-01T07:33:02;96630.00;;;26.50
14851;BMP180;7517;48.400;11.770;2022-08-01T07:35:29;96631.00;;;26.70
14851;BMP180;7517;48.400;11.770;2022-08-01T07:37:58;96625.00;;;26.90
14851;BMP180;7517;48.400;11.770;2022-08-01T07:40:25;96628.00;;;27.10
14851;BMP180;7517;48.400;11.770;2022-08-01T07:42:52;96628.00;;;27.30
14851;BMP180;7517;48.400;11.770;2022-08-01T07:45:19;96625.00;;;27.50
14851;BMP180;7517;48.400;11.770;2022-08-01T07:47:46;96630.00;;;27.70
14851;BMP180;7517;48.400;11.770;2022-08-01T07:50:16;96634.00;;;27.90
14851;BMP180;7517;48.400;11.770;2022-08-01T07:52:43;96627.00;;;28.00
14851;BMP180;7517;48.400;11.770;2022-08-01T07:55:12;96626.00;;;28.20
14851;BMP180;7517;48.400;11.770;2022-08-01T07:57:39;96628.00;;;28.40
14851;BMP180;7517;48.400;11.770;2022-08-01T08:00:08;96635.00;;;28.60
14851;BMP180;7517;48.400;11.770;2022-08-01T08:02:35;96633.00;;;28.70
14851;BMP180;7517;48.400;11.770;2022-08-01T08:05:03;96632.00;;;28.90
14851;BMP180;7517;48.400;11.770;2022-08-01T08:07:30;96625.00;;;29.00
14851;BMP180;7517;48.400;11.770;2022-08-01T08:09:58;96632.00;;;29.10
14851;BMP180;7517;48.400;11.770;2022-08-01T08:12:27;96623.00;;;29.30
14851;BMP180;7517;48.400;11.770;2022-08-01T08:14:57;96633.00;;;29.40
14851;BMP180;7517;48.400;11.770;2022-08-01T08:17:26;96632.00;;;29.60
14851;BMP180;7517;48.400;11.770;2022-08-01T08:19:53;96639.00;;;29.70
14851;BMP180;7517;48.400;11.770;2022-08-01T08:22:21;96632.00;;;29.90
14851;BMP180;7517;48.400;11.770;2022-08-01T08:24:48;96627.00;;;30.10
14851;BMP180;7517;48.400;11.770;2022-08-01T08:27:15;96631.00;;;30.20
14851;BMP180;7517;48.400;11.770;2022-08-01T08:29:43;96626.00;;;30.40
14851;BMP180;7517;48.400;11.770;2022-08-01T08:32:11;96622.00;;;30.60
14851;BMP180;7517;48.400;11.770;2022-08-01T08:34:38;96621.00;;;30.80
14851;BMP180;7517;48.400;11.770;2022-08-01T08:37:05;96629.00;;;30.90
14851;BMP180;7517;48.400;11.770;2022-08-01T08:39:33;96617.00;;;31.00
14851;BMP180;7517;48.400;11.770;2022-08-01T08:42:00;96623.00;;;31.10
14851;BMP180;7517;48.400;11.770;2022-08-01T08:44:28;96620.00;;;31.20
14851;BMP180;7517;48.400;11.770;2022-08-01T08:47:00;96624.00;;;31.30
14851;BMP180;7517;48.400;11.770;2022-08-01T08:49:29;96628.00;;;31.40
14851;BMP180;7517;48.400;11.770;2022-08-01T08:52:00;96623.00;;;31.60
14851;BMP180;7517;48.400;11.770;2022-08-01T08:54:29;96619.00;;;31.80
14851;BMP180;7517;48.400;11.770;2022-08-01T08:56:59;96627.00;;;31.90
14851;BMP180;7517;48.400;11.770;2022-08-01T08:59:27;96625.00;;;32.10
14851;BMP180;7517;48.400;11.770;2022-08-01T09:01:56;96628.00;;;32.30
14851;BMP180;7517;48.400;11.770;2022-08-01T09:04:24;96621.00;;;32.50
14851;BMP180;7517;48.400;11.770;2022-08-01T09:06:52;96631.00;;;32.70
14851;BMP180;7517;48.400;11.770;2022-08-01T09:09:19;96634.00;;;32.90
14851;BMP180;7517;48.400;11.770;2022-08-01T09:11:47;96634.00;;;33.00
14851;BMP180;7517;48.400;11.770;2022-08-01T09:14:16;96629.00;;;33.20
14851;BMP180;7517;48.400;11.770;2022-08-01T09:17:03;96628.00;;;33.40
14851;BMP180;7517;48.400;11.770;2022-08-01T09:19:37;96629.00;;;33.60
14851;BMP180;7517;48.400;11.770;2022-08-01T09:22:07;96630.00;;;33.80
14851;BMP180;7517;48.400;11.770;2022-08-01T09:24:37;96632.00;;;34.00
14851;BMP180;7517;48.400;11.770;2022-08-01T09:27:17;96629.00;;;34.20
14851;BMP180;7517;48.400;11.770;2022-08-01T09:29:45;96634.00;;;34.30
14851;BMP180;7517;48.400;11.770;2022-08-01T09:32:13;96637.00;;;34.50
14851;BMP180;7517;48.400;11.770;2022-08-01T09:34:40;96634.00;;;34.70
14851;BMP180;7517;48.400;11.770;2022-08-01T09:37:08;96629.00;;;34.90
14851;BMP180;7517;48.400;11.770;2022-08-01T09:39:37;96628.00;;;35.10
14851;BMP180;7517;48.400;11.770;2022-08-01T09:42:26;96638.00;;;35.30
14851;BMP180;7517;48.400;11.770;2022-08-01T09:44:54;96637.00;;;35.50
14851;BMP180;7517;48.400;11.770;2022-08-01T09:47:37;96643.00;;;35.70
14851;BMP180;7517;48.400;11.770;2022-08-01T09:50:05;96641.00;;;35.90
14851;BMP180;7517;48.400;11.770;2022-08-01T09:52:33;96631.00;;;36.00
14851;BMP180;7517;48.400;11.770;2022-08-01T09:55:05;96631.00;;;36.10
14851;BMP180;7517;48.400;11.770;2022-08-01T09:57:33;96635.00;;;36.10
14851;BMP180;7517;48.400;11.770;2022-08-01T10:00:02;96636.00;;;36.20
14851;BMP180;7517;48.400;11.770;2022-08-01T10:02:34;96633.00;;;36.20
14851;BMP180;7517;48.400;11.770;2022-08-01T10:05:04;96633.00;;;36.30
14851;BMP180;7517;48.400;11.770;2022-08-01T10:07:32;96635.00;;;36.50
14851;BMP180;7517;48.400;11.770;2022-08-01T10:10:10;96632.00;;;36.60
14851;BMP180;7517;48.400;11.770;2022-08-01T10:12:39;96626.00;;;36.70
14851;BMP180;7517;48.400;11.770;2022-08-01T10:15:09;96627.00;;;36.80
14851;BMP180;7517;48.400;11.770;2022-08-01T10:17:39;96617.00;;;36.90
14851;BMP180;7517;48.400;11.770;2022-08-01T10:20:09;96618.00;;;37.00
14851;BMP180;7517;48.400;11.770;2022-08-01T10:22:38;96621.00;;;37.00
14851;BMP180;7517;48.400;11.770;2022-08-01T10:25:07;96616.00;;;36.90
14851;BMP180;7517;48.400;11.770;2022-08-01T10:27:36;96619.00;;;36.80
14851;BMP180;7517;48.400;11.770;2022-08-01T10:30:06;96615.00;;;36.60
14851;BMP180;7517;48.400;11.770;2022-08-01T10:32:37;96615.00;;;36.60
14851;BMP180;7517;48.400;11.770;2022-08-01T10:35:06;96614.00;;;36.50
14851;BMP180;7517;48.400;11.770;2022-08-01T10:37:35;96620.00;;;36.50
14851;BMP180;7517;48.400;11.770;2022-08-01T10:40:03;96622.00;;;36.40
14851;BMP180;7517;48.400;11.770;2022-08-01T10:42:33;96610.00;;;36.50
14851;BMP180;7517;48.400;11.770;2022-08-01T10:45:02;96608.00;;;36.50
14851;BMP180;7517;48.400;11.770;2022-08-01T10:47:44;96604.00;;;36.40
14851;BMP180;7517;48.400;11.770;2022-08-01T10:50:21;96599.00;;;36.40
14851;BMP180;7517;48.400;11.770;2022-08-01T10:53:12;96600.00;;;36.40
14851;BMP180;7517;48.400;11.770;2022-08-01T10:55:56;96600.00;;;36.50
14851;BMP180;7517;48.400;11.770;2022-08-01T10:58:26;96589.00;;;36.50
14851;BMP180;7517;48.400;11.770;2022-08-01T11:01:18;96587.00;;;36.40
14851;BMP180;7517;48.400;11.770;2022-08-01T11:04:08;96589.00;;;36.30
14851;BMP180;7517;48.400;11.770;2022-08-01T11:06:54;96589.00;;;36.20
14851;BMP180;7517;48.400;11.770;2022-08-01T11:09:30;96585.00;;;36.10
14851;BMP180;7517;48.400;11.770;2022-08-01T11:12:01;96578.00;;;35.90
14851;BMP180;7517;48.400;11.770;2022-08-01T11:14:31;96572.00;;;35.80
14851;BMP180;7517;48.400;11.770;2022-08-01T11:17:31;96565.00;;;35.60
14851;BMP180;7517;48.400;11.770;2022-08-01T11:20:12;96563.00;;;35.50
14851;BMP180;7517;48.400;11.770;2022-08-01T11:23:23;96563.00;;;35.30
14851;BMP180;7517;48.400;11.770;2022-08-01T11:26:21;96566.00;;;35.10
14851;BMP180;7517;48.400;11.770;2022-08-01T11:29:17;96572.00;;;34.90
14851;BMP180;7517;48.400;11.770;2022-08-01T11:31:44;96571.00;;;34.70
14851;BMP180;7517;48.400;11.770;2022-08-01T11:34:11;96564.00;;;34.50
14851;BMP180;7517;48.400;11.770;2022-08-01T11:36:40;96563.00;;;34.40
14851;BMP180;7517;48.400;11.770;2022-08-01T11:39:25;96557.00;;;34.30
14851;BMP180;7517;48.400;11.770;2022-08-01T11:41:53;96553.00;;;34.20
14851;BMP180;7517;48.400;11.770;2022-08-01T11:44:23;96556.00;;;34.20
14851;BMP180;7517;48.400;11.770;2022-08-01T11:46:59;96557.00;;;34.20
14851;BMP180;7517;48.400;11.770;2022-08-01T11:49:45;96555.00;;;34.20
14851;BMP180;7517;48.400;11.770;2022-08-01T11:52:17;96551.00;;;34.10
14851;BMP180;7517;48.400;11.770;2022-08-01T11:54:47;96559.00;;;34.10
14851;BMP180;7517;48.400;11.770;2022-08-01T11:57:19;96565.00;;;34.10
14851;BMP180;7517;48.400;11.770;2022-08-01T11:59:48;96572.00;;;34.10
14851;BMP180;7517;48.400;11.770;2022-08-01T12:02:21;96565.00;;;34.00
14851;BMP180;7517;48.400;11.770;2022-08-01T12:04:55;96564.00;;;34.00
14851;BMP180;7517;48.400;11.770;2022-08-01T12:07:26;96554.00;;;33.90
14851;BMP180;7517;48.400;11.770;2022-08-01T12:10:00;96554.00;;;33.80
14851;BMP180;7517;48.400;11.770;2022-08-01T12:12:28;96560.00;;;33.80
14851;BMP180;7517;48.400;11.770;2022-08-01T12:14:58;96553.00;;;33.70
14851;BMP180;7517;48.400;11.770;2022-08-01T12:17:31;96551.00;;;33.70
14851;BMP180;7517;48.400;11.770;2022-08-01T12:19:59;96551.00;;;33.60
14851;BMP180;7517;48.400;11.770;2022-08-01T12:22:28;96548.00;;;33.60
14851;BMP180;7517;48.400;11.770;2022-08-01T12:24:56;96553.00;;;33.50
14851;BMP180;7517;48.400;11.770;2022-08-01T12:27:31;96546.00;;;33.50
14851;BMP180;7517;48.400;11.770;2022-08-01T12:29:59;96548.00;;;33.40
14851;BMP180;7517;48.400;11.770;2022-08-01T12:32:29;96545.00;;;33.40
14851;BMP180;7517;48.400;11.770;2022-08-01T12:35:02;96542.00;;;33.30
14851;BMP180;7517;48.400;11.770;2022-08-01T12:37:32;96548.00;;;33.20
14851;BMP180;7517;48.400;11.770;2022-08-01T12:39:59;96552.00;;;33.20
14851;BMP180;7517;48.400;11.770;2022-08-01T12:42:27;96554.00;;;33.10
14851;BMP180;7517;48.400;11.770;2022-08-01T12:44:55;96555.00;;;33.10
14851;BMP180;7517;48.400;11.770;2022-08-01T12:47:23;96544.00;;;33.00
14851;BMP180;7517;48.400;11.770;2022-08-01T12:49:51;96539.00;;;33.00
14851;BMP180;7517;48.400;11.770;2022-08-01T12:52:19;96542.00;;;33.00
14851;BMP180;7517;48.400;11.770;2022-08-01T12:55:08;96547.00;;;32.90
14851;BMP180;7517;48.400;11.770;2022-08-01T12:57:38;96535.00;;;32.90
14851;BMP180;7517;48.400;11.770;2022-08-01T13:00:24;96532.00;;;32.90
14851;BMP180;7517;48.400;11.770;2022-08-01T13:03:02;96525.00;;;33.00
14851;BMP180;7517;48.400;11.770;2022-08-01T13:05:45;96528.00;;;33.00
14851;BMP180;7517;48.400;11.770;2022-08-01T13:08:16;96532.00;;;33.00
14851;BMP180;7517;48.400;11.770;2022-08-01T13:10:46;96531.00;;;33.00
14851;BMP180;7517;48.400;11.770;2022-08-01T13:13:16;96528.00;;;33.00
14851;BMP180;7517;48.400;11.770;2022-08-01T13:15:44;96525.00;;;33.10
14851;BMP180;7517;48.400;11.770;2022-08-01T13:18:27;96526.00;;;33.10
14851;BMP180;7517;48.400;11.770;2022-08-01T13:21:12;96521.00;;;33.10
14851;BMP180;7517;48.400;11.770;2022-08-01T13:23:41;96526.00;;;33.10
14851;BMP180;7517;48.400;11.770;2022-08-01T13:26:10;96516.00;;;33.10
14851;BMP180;7517;48.400;11.770;2022-08-01T13:28:37;96518.00;;;33.10
14851;BMP180;7517;48.400;11.770;2022-08-01T13:31:07;96526.00;;;33.20
14851;BMP180;7517;48.400;11.770;2022-08-01T13:33:43;96526.00;;;33.10
14851;BMP180;7517;48.400;11.770;2022-08-01T13:36:11;96528.00;;;33.00
14851;BMP180;7517;48.400;11.770;2022-08-01T13:38:39;96547.00;;;32.90
14851;BMP180;7517;48.400;11.770;2022-08-01T13:41:26;96552.00;;;32.80
14851;BMP180;7517;48.400;11.770;2022-08-01T13:43:53;96561.00;;;32.50
14851;BMP180;7517;48.400;11.770;2022-08-01T13:46:21;96559.00;;;32.30
14851;BMP180;7517;48.400;11.770;2022-08-01T13:48:48;96560.00;;;32.00
14851;BMP180;7517;48.400;11.770;2022-08-01T13:51:15;96553.00;;;31.80
14851;BMP180;7517;48.400;11.770;2022-08-01T13:53:42;96549.00;;;31.60
14851;BMP180;7517;48.400;11.770;2022-08-01T13:56:09;96550.00;;;31.40
14851;BMP180;7517;48.400;11.770;2022-08-01T13:58:38;96542.00;;;31.30
14851;BMP180;7517;48.400;11.770;2022-08-01T14:01:05;96536.00;;;31.20
14851;BMP180;7517;48.400;11.770;2022-08-01T14:03:33;96537.00;;;31.00
14851;BMP180;7517;48.400;11.770;2022-08-01T14:06:00;96538.00;;;30.90
14851;BMP180;7517;48.400;11.770;2022-08-01T14:08:27;96538.00;;;30.90
14851;BMP180;7517;48.400;11.770;2022-08-01T14:10:54;96539.00;;;30.80
14851;BMP180;7517;48.400;11.770;2022-08-01T14:13:24;96533.00;;;30.80
14851;BMP180;7517;48.400;11.770;2022-08-01T14:15:53;96536.00;;;30.70
14851;BMP180;7517;48.400;11.770;2022-08-01T14:18:20;96540.00;;;30.70
14851;BMP180;7517;48.400;11.770;2022-08-01T14:20:47;96541.00;;;30.70
14851;BMP180;7517;48.400;11.770;2022-08-01T14:23:14;96544.00;;;30.60
14851;BMP180;7517;48.400;11.770;2022-08-01T14:25:42;96548.00;;;30.60
14851;BMP180;7517;48.400;11.770;2022-08-01T14:28:09;96550.00;;;30.50